Time;durP1;ratioP1;P1;durP2;ratioP2;P2;SDS_P1;SDS_P2;PMS_P1;PMS_P2;Temp;Humidity;BMP_temperature;BMP_pressure;BME280_temperature;BME280_humidity;BME280_pressure;Samples;Min_cycle;Max_cycle;Signal;HPM_P1;HPM_P2
2023/01/31 00:00:26;;;;;;;6.32;3.13;;;16.30;45.80;;;;;;4996354;28;20193;-57
2023/01/31 00:02:53;;;;;;;6.95;3.80;;;16.30;46.00;;;;;;4978475;28;20228;-57
2023/01/31 00:05:21;;;;;;;5.93;3.60;;;16.30;45.60;;;;;;4995557;28;20189;-57
2023/01/31 00:07:48;;;;;;;8.55;3.80;;;16.30;45.60;;;;;;4978347;28;20224;-57
2023/01/31 00:10:15;;;;;;;6.15;3.35;;;16.30;45.50;;;;;;4978519;28;20274;-56
2023/01/31 00:12:44;;;;;;;7.88;3.45;;;16.20;45.50;;;;;;4995829;28;20201;-57
2023/01/31 00:15:12;;;;;;;5.45;3.20;;;16.20;45.40;;;;;;4995273;28;20194;-57
2023/01/31 00:17:40;;;;;;;6.45;3.40;;;16.20;45.40;;;;;;4994137;28;20228;-56
2023/01/31 00:20:08;;;;;;;7.78;3.60;;;16.20;45.30;;;;;;4995061;28;20233;-57
2023/01/31 00:22:35;;;;;;;7.20;3.70;;;16.10;45.70;;;;;;4995017;28;20216;-56
2023/01/31 00:25:03;;;;;;;5.38;3.35;;;16.10;45.50;;;;;;4977675;28;20212;-56
2023/01/31 00:27:30;;;;;;;5.57;3.35;;;16.10;45.70;;;;;;4994812;28;20273;-56
2023/01/31 00:29:59;;;;;;;7.07;3.33;;;16.10;45.80;;;;;;4995053;28;20181;-57
2023/01/31 00:32:26;;;;;;;7.80;3.50;;;16.10;45.60;;;;;;4995112;28;20190;-56
2023/01/31 00:34:53;;;;;;;6.32;3.20;;;16.10;45.40;;;;;;4994817;28;20221;-57
2023/01/31 00:37:21;;;;;;;5.43;3.03;;;16.00;45.40;;;;;;4994963;28;20232;-57
2023/01/31 00:39:48;;;;;;;5.75;3.10;;;16.00;45.60;;;;;;4994495;28;20292;-56
2023/01/31 00:42:17;;;;;;;7.03;3.25;;;16.00;45.80;;;;;;4977041;28;20284;-56
2023/01/31 00:44:44;;;;;;;4.47;3.05;;;16.00;46.00;;;;;;4977539;28;20197;-56
2023/01/31 00:47:13;;;;;;;7.43;3.25;;;16.00;45.60;;;;;;4977601;28;20225;-57
2023/01/31 00:49:40;;;;;;;5.22;3.05;;;16.00;45.40;;;;;;4976866;28;20251;-57
2023/01/31 00:52:07;;;;;;;4.90;3.00;;;15.90;45.80;;;;;;4977462;28;20193;-56
2023/01/31 00:54:34;;;;;;;4.57;2.97;;;15.90;45.70;;;;;;4977718;28;20690;-57
2023/01/31 00:57:01;;;;;;;6.32;3.05;;;15.90;45.60;;;;;;4977666;28;20240;-57
2023/01/31 00:59:28;;;;;;;7.95;3.40;;;15.90;45.70;;;;;;4976860;28;20251;-56
2023/01/31 01:01:55;;;;;;;5.78;3.30;;;15.80;45.60;;;;;;4994367;28;20268;-56
2023/01/31 01:04:24;;;;;;;5.95;2.90;;;15.80;45.60;;;;;;4994445;28;20285;-56
2023/01/31 01:06:51;;;;;;;4.55;2.80;;;15.80;45.60;;;;;;4994229;28;20595;-56
2023/01/31 01:09:18;;;;;;;5.43;3.05;;;15.80;46.00;;;;;;4994539;28;20189;-57
2023/01/31 01:11:47;;;;;;;4.80;3.20;;;15.80;45.70;;;;;;4976672;28;20201;-56
2023/01/31 01:14:14;;;;;;;5.38;3.20;;;15.80;45.50;;;;;;4976535;28;20592;-56
2023/01/31 01:16:41;;;;;;;6.18;3.20;;;15.70;45.50;;;;;;4976842;28;20227;-56
2023/01/31 01:19:13;;;;;;;5.53;3.10;;;15.70;46.00;;;;;;4977045;28;20225;-56
2023/01/31 01:21:43;;;;;;;5.18;3.03;;;15.70;45.50;;;;;;4993663;28;20261;-56
2023/01/31 01:24:12;;;;;;;7.28;3.33;;;15.70;46.20;;;;;;4975961;28;20570;-57
2023/01/31 01:26:41;;;;;;;3.95;2.67;;;15.60;45.50;;;;;;4976065;28;20221;-56
2023/01/31 01:29:09;;;;;;;5.70;2.83;;;15.70;45.40;;;;;;4993040;28;20232;-56
2023/01/31 01:31:37;;;;;;;3.88;2.75;;;15.60;45.40;;;;;;4975948;28;20217;-56
2023/01/31 01:34:05;;;;;;;5.32;2.78;;;15.60;45.30;;;;;;4975923;28;20640;-57
2023/01/31 01:36:33;;;;;;;3.58;2.55;;;15.60;45.30;;;;;;4992942;28;20545;-57
2023/01/31 01:39:01;;;;;;;4.68;2.63;;;15.60;45.20;;;;;;4974967;28;20200;-57
2023/01/31 01:41:28;;;;;;;5.35;2.75;;;15.60;45.20;;;;;;4975456;28;20557;-56
2023/01/31 01:43:56;;;;;;;5.63;3.17;;;15.60;45.20;;;;;;4975788;28;20595;-57
2023/01/31 01:46:27;;;;;;;4.50;2.72;;;15.60;45.40;;;;;;4993215;28;20190;-56
2023/01/31 01:48:56;;;;;;;5.30;2.67;;;15.60;45.30;;;;;;4993542;28;20197;-56
2023/01/31 01:51:24;;;;;;;4.22;2.60;;;15.50;45.30;;;;;;4993488;28;20239;-56
2023/01/31 01:53:54;;;;;;;4.53;2.90;;;15.60;45.30;;;;;;4975607;28;20201;-57
2023/01/31 01:56:25;;;;;;;4.78;2.70;;;15.60;45.30;;;;;;4975813;28;20240;-56
2023/01/31 01:58:57;;;;;;;5.07;2.90;;;15.60;45.30;;;;;;4993168;28;20174;-56
2023/01/31 02:01:25;;;;;;;4.95;3.00;;;15.60;45.20;;;;;;4993073;28;20178;-56
2023/01/31 02:03:52;;;;;;;3.53;2.45;;;15.60;45.20;;;;;;4975448;28;20308;-56
2023/01/31 02:06:20;;;;;;;4.57;2.85;;;15.60;45.20;;;;;;4993020;28;20280;-57
2023/01/31 02:08:46;;;;;;;5.07;2.80;;;15.50;45.10;;;;;;4975561;28;20244;-57
2023/01/31 02:11:18;;;;;;;5.10;2.92;;;15.50;45.10;;;;;;4992969;28;20197;-56
2023/01/31 02:13:47;;;;;;;4.28;2.50;;;15.50;45.10;;;;;;4993336;28;20541;-57
2023/01/31 02:16:14;;;;;;;4.32;2.50;;;15.50;45.10;;;;;;4993063;28;20644;-56
2023/01/31 02:18:42;;;;;;;4.25;2.58;;;15.50;45.10;;;;;;5003216;23;20681;-80
2023/01/31 02:21:42;;;;;;;3.42;2.47;;;15.50;45.10;;;;;;5014123;28;20558;-79
2023/01/31 02:24:25;;;;;;;5.45;3.05;;;15.50;45.10;;;;;;4997028;28;20227;-79
2023/01/31 02:27:19;;;;;;;4.13;2.67;;;15.50;45.10;;;;;;5013225;28;20216;-77
2023/01/31 02:30:17;;;;;;;3.47;2.53;;;15.50;45.10;;;;;;5013348;28;20197;-79
2023/01/31 02:32:49;;;;;;;4.50;2.85;;;15.40;45.00;;;;;;5013260;28;20664;-79
2023/01/31 02:35:21;;;;;;;4.03;2.63;;;15.50;45.10;;;;;;5012570;28;20216;-79
2023/01/31 02:37:57;;;;;;;4.35;2.75;;;15.40;44.90;;;;;;5013344;28;20203;-80
2023/01/31 02:40:28;;;;;;;3.80;2.50;;;15.40;45.00;;;;;;5015079;28;20203;-80
2023/01/31 02:42:59;;;;;;;4.72;2.55;;;15.40;45.10;;;;;;5016307;28;20200;-78
2023/01/31 02:45:30;;;;;;;3.35;2.40;;;15.40;45.00;;;;;;5015911;28;20217;-77
2023/01/31 02:48:06;;;;;;;3.78;2.60;;;15.40;45.10;;;;;;5016338;28;20199;-77
2023/01/31 02:50:43;;;;;;;5.50;2.95;;;15.40;45.20;;;;;;5016034;28;20199;-77
2023/01/31 02:53:13;;;;;;;3.85;2.25;;;15.30;45.20;;;;;;5015500;28;20193;-77
2023/01/31 02:58:38;;;;;;;4.18;2.60;;;15.30;45.20;;;;;;5005319;28;20215;-77
2023/01/31 03:01:06;;;;;;;4.20;2.22;;;15.30;45.20;;;;;;5016870;28;20365;-77
2023/01/31 03:03:36;;;;;;;5.05;2.25;;;15.30;45.10;;;;;;5014934;28;20212;-77
2023/01/31 03:06:32;;;;;;;3.40;2.30;;;15.30;45.10;;;;;;5016012;28;20220;-79
2023/01/31 03:09:20;;;;;;;4.43;2.20;;;15.30;45.30;;;;;;5014789;28;20204;-77
2023/01/31 03:11:52;;;;;;;3.42;2.22;;;15.20;45.20;;;;;;5014954;28;20652;-77
2023/01/31 03:14:22;;;;;;;4.60;2.70;;;15.20;45.20;;;;;;5014710;28;20197;-77
2023/01/31 03:19:40;;;;;;;3.15;2.33;;;15.20;45.30;;;;;;5014952;28;20283;-77
2023/01/31 03:22:10;;;;;;;3.42;2.10;;;15.20;45.20;;;;;;5014196;28;20208;-77
2023/01/31 03:24:37;;;;;;;4.25;2.35;;;15.20;45.40;;;;;;5014856;28;20304;-77
2023/01/31 03:27:04;;;;;;;4.45;2.47;;;15.20;45.40;;;;;;5015190;28;20299;-77
2023/01/31 03:29:33;;;;;;;4.32;2.38;;;15.20;45.30;;;;;;5015200;28;20219;-77
2023/01/31 03:32:05;;;;;;;3.13;2.17;;;15.20;45.40;;;;;;5015046;28;20247;-77
2023/01/31 03:34:33;;;;;;;3.17;2.40;;;15.10;45.30;;;;;;5014611;28;20215;-77
2023/01/31 03:37:03;;;;;;;3.33;2.10;;;15.20;45.40;;;;;;5014834;28;20240;-77
2023/01/31 03:39:50;;;;;;;2.83;2.05;;;15.20;45.40;;;;;;5015292;28;20635;-77
2023/01/31 03:42:19;;;;;;;5.35;2.42;;;15.10;45.50;;;;;;5014594;28;20267;-77
2023/01/31 03:44:50;;;;;;;3.63;2.38;;;15.10;45.40;;;;;;5014833;28;20223;-77
2023/01/31 03:47:19;;;;;;;4.70;2.50;;;15.10;45.50;;;;;;5014538;28;20279;-79
2023/01/31 03:49:46;;;;;;;4.22;2.22;;;15.10;45.50;;;;;;5015066;28;20197;-77
2023/01/31 03:52:16;;;;;;;3.95;2.40;;;15.10;45.50;;;;;;5013925;28;20569;-77
2023/01/31 03:54:49;;;;;;;2.63;2.20;;;15.10;45.50;;;;;;4998747;28;20647;-77
2023/01/31 03:57:18;;;;;;;3.67;2.40;;;15.10;45.60;;;;;;5014222;28;20606;-77
2023/01/31 03:59:47;;;;;;;3.75;2.00;;;15.10;45.60;;;;;;5014789;28;20204;-77
2023/01/31 04:02:15;;;;;;;2.88;2.03;;;15.10;46.20;;;;;;5014484;28;20251;-77
2023/01/31 04:04:44;;;;;;;4.45;2.10;;;15.10;45.50;;;;;;5013971;28;20227;-77
2023/01/31 04:07:12;;;;;;;3.63;2.20;;;15.10;45.60;;;;;;5013815;28;20213;-78
2023/01/31 04:09:41;;;;;;;2.40;1.80;;;15.00;45.40;;;;;;5013754;28;20292;-77
2023/01/31 04:12:09;;;;;;;3.80;2.15;;;15.10;45.50;;;;;;5014170;28;20307;-77
2023/01/31 04:14:36;;;;;;;2.53;1.90;;;15.00;45.50;;;;;;5014083;28;20222;-77
2023/01/31 04:17:03;;;;;;;3.03;2.00;;;15.00;45.70;;;;;;5013847;28;20223;-77
2023/01/31 04:19:30;;;;;;;4.03;2.20;;;15.00;45.70;;;;;;5013784;28;20216;-77
2023/01/31 04:21:58;;;;;;;2.97;1.98;;;15.00;45.70;;;;;;5013932;28;20259;-77
2023/01/31 04:24:25;;;;;;;3.25;2.00;;;15.00;45.70;;;;;;4997894;28;20254;-77
2023/01/31 04:26:54;;;;;;;2.42;1.98;;;15.00;45.60;;;;;;5013776;28;20243;-79
2023/01/31 04:29:21;;;;;;;2.75;2.13;;;15.00;46.20;;;;;;5013549;28;20252;-77
2023/01/31 04:31:48;;;;;;;4.55;2.30;;;15.10;45.70;;;;;;5013759;28;20201;-78
2023/01/31 04:34:15;;;;;;;3.38;1.88;;;15.10;45.70;;;;;;5015149;28;20279;-78
2023/01/31 04:36:43;;;;;;;2.20;2.00;;;15.10;45.50;;;;;;5014395;28;20236;-78
2023/01/31 04:39:10;;;;;;;2.40;1.90;;;15.10;45.50;;;;;;5013300;28;20543;-78
2023/01/31 04:41:37;;;;;;;3.90;2.10;;;15.20;45.50;;;;;;5013645;28;20593;-77
2023/01/31 04:44:06;;;;;;;3.35;2.08;;;15.20;45.50;;;;;;5014863;28;20220;-77
2023/01/31 04:46:33;;;;;;;3.95;2.28;;;15.20;45.30;;;;;;5013333;28;20259;-77
2023/01/31 04:49:00;;;;;;;4.38;2.17;;;15.20;45.20;;;;;;5014998;28;20200;-77
2023/01/31 04:51:27;;;;;;;2.75;2.08;;;15.20;45.30;;;;;;5013236;28;20227;-78
2023/01/31 04:53:54;;;;;;;2.95;2.10;;;15.30;45.20;;;;;;5013541;28;20243;-78
2023/01/31 04:56:21;;;;;;;3.08;2.15;;;15.30;45.00;;;;;;5013027;28;20227;-78
2023/01/31 04:58:49;;;;;;;2.40;2.05;;;15.30;45.00;;;;;;5013276;28;20671;-78
2023/01/31 05:01:17;;;;;;;3.42;1.77;;;15.30;45.00;;;;;;5013317;28;20627;-78
2023/01/31 05:03:44;;;;;;;2.60;2.03;;;15.20;45.00;;;;;;4996849;28;20228;-78
2023/01/31 05:06:11;;;;;;;3.33;2.10;;;15.20;44.80;;;;;;5013819;28;20221;-78
2023/01/31 05:08:39;;;;;;;2.50;2.00;;;15.20;44.90;;;;;;5014712;28;20654;-79
2023/01/31 05:11:06;;;;;;;2.92;1.85;;;15.20;44.80;;;;;;4998957;28;20224;-80
2023/01/31 05:13:36;;;;;;;2.97;1.90;;;15.20;44.80;;;;;;5014168;28;20267;-79
2023/01/31 05:16:06;;;;;;;2.75;2.20;;;15.20;44.90;;;;;;4997981;28;20308;-80
2023/01/31 05:18:35;;;;;;;2.38;1.95;;;15.20;44.90;;;;;;5012641;28;20200;-80
2023/01/31 05:21:02;;;;;;;3.47;2.00;;;15.20;44.70;;;;;;5013175;28;20337;-79
2023/01/31 05:23:30;;;;;;;4.10;2.45;;;15.20;44.70;;;;;;5013248;28;20204;-79
2023/01/31 05:25:57;;;;;;;5.35;2.20;;;15.20;44.80;;;;;;5014337;28;20223;-79
2023/01/31 05:28:24;;;;;;;2.22;1.98;;;15.30;44.80;;;;;;5014416;28;20227;-79
2023/01/31 05:30:51;;;;;;;4.22;2.22;;;15.20;44.80;;;;;;5012908;28;20267;-79
2023/01/31 05:33:19;;;;;;;2.55;1.85;;;15.30;44.80;;;;;;5012995;28;20679;-82
2023/01/31 05:35:48;;;;;;;3.75;2.05;;;15.30;44.80;;;;;;4996845;28;20212;-81
2023/01/31 05:38:15;;;;;;;4.05;1.95;;;15.30;45.00;;;;;;5013332;28;20207;-82
2023/01/31 05:40:42;;;;;;;3.78;1.90;;;15.30;45.00;;;;;;5013510;28;20197;-82
2023/01/31 05:43:09;;;;;;;2.40;1.75;;;15.30;45.00;;;;;;5012962;28;20209;-82
2023/01/31 05:45:36;;;;;;;3.60;2.25;;;15.30;44.70;;;;;;5013216;28;20229;-83
2023/01/31 05:48:04;;;;;;;3.22;2.00;;;15.30;45.00;;;;;;5014081;28;20197;-83
2023/01/31 05:50:31;;;;;;;3.30;2.17;;;15.40;45.10;;;;;;5013234;28;20224;-83
2023/01/31 05:53:10;;;;;;;2.47;1.90;;;15.40;45.30;;;;;;5012992;28;20191;-83
2023/01/31 05:55:37;;;;;;;4.30;2.25;;;15.40;45.20;;;;;;5020032;22;20244;-55
2023/01/31 05:58:04;;;;;;;2.20;1.83;;;15.40;45.20;;;;;;5011663;28;20220;-56
2023/01/31 06:00:31;;;;;;;2.58;2.20;;;15.50;45.30;;;;;;5011744;28;20196;-56
2023/01/31 06:02:58;;;;;;;3.67;2.20;;;15.50;45.30;;;;;;5011712;28;20249;-56
2023/01/31 06:05:26;;;;;;;2.97;2.10;;;15.50;45.20;;;;;;5011854;28;20221;-56
2023/01/31 06:07:54;;;;;;;3.28;2.15;;;15.50;45.20;;;;;;5012873;28;20311;-55
2023/01/31 06:10:22;;;;;;;3.20;2.08;;;15.60;45.30;;;;;;5012927;28;20242;-57
2023/01/31 06:12:49;;;;;;;3.28;1.90;;;15.60;45.40;;;;;;5012650;28;20193;-56
2023/01/31 06:15:22;;;;;;;4.03;2.08;;;15.60;44.80;;;;;;5015874;28;20655;-56
2023/01/31 06:17:49;;;;;;;2.40;1.80;;;15.60;44.50;;;;;;5015939;28;20216;-56
2023/01/31 06:20:17;;;;;;;3.13;2.00;;;15.60;44.20;;;;;;5016149;28;20686;-56
2023/01/31 06:22:44;;;;;;;4.38;1.98;;;15.60;44.10;;;;;;5016606;28;20188;-56
2023/01/31 06:25:11;;;;;;;2.85;1.98;;;15.60;44.20;;;;;;5016057;28;20290;-56
2023/01/31 06:27:39;;;;;;;3.08;1.95;;;15.60;44.20;;;;;;5016156;28;20216;-56
2023/01/31 06:30:07;;;;;;;3.05;2.08;;;15.50;43.80;;;;;;5016065;28;20197;-56
2023/01/31 06:32:34;;;;;;;4.38;2.28;;;15.60;44.00;;;;;;5016318;28;20283;-56
2023/01/31 06:35:02;;;;;;;2.10;1.90;;;15.60;44.00;;;;;;5016583;28;20196;-56
2023/01/31 06:37:28;;;;;;;2.83;1.88;;;15.50;43.90;;;;;;5015998;28;20218;-56
2023/01/31 06:39:56;;;;;;;2.72;1.90;;;15.50;43.90;;;;;;5016107;28;20192;-55
2023/01/31 06:42:23;;;;;;;3.28;1.90;;;15.50;43.80;;;;;;5016379;28;20193;-56
2023/01/31 06:44:51;;;;;;;3.45;2.00;;;15.50;43.80;;;;;;5016317;28;20216;-56
2023/01/31 06:47:18;;;;;;;3.25;2.13;;;15.50;43.70;;;;;;5015013;28;20231;-56
2023/01/31 06:49:45;;;;;;;3.28;1.83;;;15.50;43.50;;;;;;5016412;28;20239;-56
2023/01/31 06:52:13;;;;;;;2.60;2.00;;;15.50;43.50;;;;;;5016366;28;20199;-56
2023/01/31 06:54:40;;;;;;;3.83;2.20;;;15.50;43.50;;;;;;5017885;28;20268;-56
2023/01/31 06:57:07;;;;;;;3.20;1.95;;;15.50;43.40;;;;;;5017144;28;20240;-56
2023/01/31 06:59:34;;;;;;;3.30;2.13;;;15.50;43.30;;;;;;5014591;28;20192;-56
2023/01/31 07:02:03;;;;;;;3.20;2.28;;;15.50;43.40;;;;;;5016013;28;20221;-56
2023/01/31 07:04:30;;;;;;;4.45;2.03;;;15.50;43.30;;;;;;5015674;28;20216;-56
2023/01/31 07:06:57;;;;;;;2.38;2.00;;;15.50;43.30;;;;;;5014380;28;20706;-56
2023/01/31 07:09:24;;;;;;;2.58;2.20;;;15.50;43.30;;;;;;5015624;28;20197;-56
2023/01/31 07:11:51;;;;;;;4.38;2.20;;;15.50;43.30;;;;;;5014368;28;20756;-56
2023/01/31 07:14:18;;;;;;;3.83;2.40;;;15.50;43.30;;;;;;5014360;28;20201;-56
2023/01/31 07:16:45;;;;;;;3.25;2.20;;;15.50;43.30;;;;;;5015836;28;20212;-56
2023/01/31 07:19:14;;;;;;;3.55;2.20;;;15.50;43.40;;;;;;5015553;28;20279;-56
2023/01/31 07:21:41;;;;;;;2.92;1.98;;;15.50;43.30;;;;;;5014119;28;20238;-56
2023/01/31 07:24:08;;;;;;;4.07;2.30;;;15.50;43.30;;;;;;5015777;28;20193;-56
2023/01/31 07:26:35;;;;;;;3.55;2.15;;;15.50;43.40;;;;;;5014508;28;20220;-57
2023/01/31 07:29:02;;;;;;;2.83;2.08;;;15.50;43.80;;;;;;5015319;28;20188;-56
2023/01/31 07:31:30;;;;;;;2.88;1.98;;;15.50;43.30;;;;;;5015263;28;20650;-56
2023/01/31 07:33:57;;;;;;;3.85;2.58;;;15.50;43.30;;;;;;5014258;28;20204;-56
2023/01/31 07:36:26;;;;;;;3.63;2.30;;;15.50;43.30;;;;;;5015171;28;20227;-56
2023/01/31 07:38:54;;;;;;;2.58;2.00;;;15.60;43.30;;;;;;5015362;28;20275;-56
2023/01/31 07:41:21;;;;;;;2.58;2.20;;;15.60;43.20;;;;;;5015050;28;20672;-56
2023/01/31 07:43:49;;;;;;;2.83;2.28;;;15.60;43.20;;;;;;5013792;28;20200;-56
2023/01/31 07:46:16;;;;;;;2.75;1.85;;;15.60;43.20;;;;;;5015243;28;20209;-56
2023/01/31 07:48:43;;;;;;;3.47;2.20;;;15.60;43.20;;;;;;5014112;28;20616;-56
2023/01/31 07:51:10;;;;;;;3.88;2.03;;;15.60;43.10;;;;;;5015619;28;20220;-56
2023/01/31 07:53:41;;;;;;;4.35;2.20;;;15.60;43.10;;;;;;5015113;28;20199;-56
2023/01/31 07:56:10;;;;;;;3.72;2.33;;;15.60;43.10;;;;;;5015514;28;20205;-55
2023/01/31 07:58:37;;;;;;;2.92;2.40;;;15.60;43.00;;;;;;5015421;28;20223;-56
2023/01/31 08:03:48;;;;;;;2.88;2.00;;;15.70;43.10;;;;;;5014254;28;20203;-56
2023/01/31 08:06:16;;;;;;;3.45;1.98;;;15.70;42.90;;;;;;5015230;28;20746;-57
2023/01/31 08:08:45;;;;;;;3.08;2.30;;;15.70;43.00;;;;;;5015211;28;20199;-56
2023/01/31 08:11:12;;;;;;;4.53;2.20;;;15.70;42.90;;;;;;5014865;28;20299;-56
2023/01/31 08:13:39;;;;;;;3.03;2.30;;;15.70;42.90;;;;;;5013704;28;20196;-56
2023/01/31 08:16:08;;;;;;;2.30;1.92;;;15.70;42.90;;;;;;5013638;28;20197;-56
2023/01/31 08:18:35;;;;;;;3.28;2.15;;;15.70;42.90;;;;;;5013286;28;20642;-56
2023/01/31 08:21:02;;;;;;;2.58;1.88;;;15.80;43.00;;;;;;5013022;28;20236;-58
2023/01/31 08:23:29;;;;;;;4.82;2.33;;;15.80;43.00;;;;;;5014566;28;20219;-56
2023/01/31 08:26:02;;;;;;;2.72;2.10;;;15.80;43.00;;;;;;5012893;28;20217;-56
2023/01/31 08:28:29;;;;;;;2.63;1.92;;;15.80;42.90;;;;;;5014121;28;20216;-56
2023/01/31 08:30:56;;;;;;;6.22;2.40;;;15.80;42.90;;;;;;5014142;28;20199;-56
2023/01/31 08:33:23;;;;;;;3.15;2.08;;;15.90;42.90;;;;;;5012757;28;20205;-56
2023/01/31 08:35:50;;;;;;;2.33;1.92;;;15.90;42.70;;;;;;5014001;28;20181;-56
2023/01/31 08:38:17;;;;;;;2.45;2.00;;;15.90;42.50;;;;;;5013048;28;20633;-56
2023/01/31 08:40:44;;;;;;;4.57;2.17;;;16.00;42.60;;;;;;5013841;28;20278;-56
2023/01/31 08:43:13;;;;;;;4.05;2.10;;;16.10;42.60;;;;;;5012408;28;20192;-56
2023/01/31 08:45:40;;;;;;;3.53;2.28;;;16.10;42.40;;;;;;5013610;28;20213;-56
2023/01/31 08:48:07;;;;;;;2.85;1.95;;;16.20;42.40;;;;;;5013704;28;20225;-56
2023/01/31 08:50:34;;;;;;;2.60;1.70;;;16.30;42.20;;;;;;5013470;28;20671;-56
2023/01/31 08:53:02;;;;;;;4.05;2.22;;;16.30;42.20;;;;;;5013750;28;20689;-57
2023/01/31 08:55:29;;;;;;;2.83;2.00;;;16.40;42.00;;;;;;5012105;28;20550;-56
2023/01/31 08:57:56;;;;;;;2.60;1.80;;;16.40;41.90;;;;;;5013459;28;20217;-57
2023/01/31 09:00:25;;;;;;;2.55;1.90;;;16.50;41.90;;;;;;5012097;28;20697;-56
2023/01/31 09:02:52;;;;;;;3.47;2.30;;;16.50;41.80;;;;;;5013608;28;20196;-56
2023/01/31 09:05:19;;;;;;;4.28;2.30;;;16.50;41.80;;;;;;5013799;28;20212;-56
2023/01/31 09:07:46;;;;;;;2.78;2.28;;;16.50;41.80;;;;;;5013208;28;20580;-56
2023/01/31 09:10:13;;;;;;;3.13;2.00;;;16.50;41.60;;;;;;5013353;28;20192;-56
2023/01/31 09:12:40;;;;;;;2.50;1.77;;;16.60;41.70;;;;;;5013162;28;20690;-56
2023/01/31 09:15:08;;;;;;;2.83;1.83;;;16.60;41.70;;;;;;5013064;28;20204;-56
2023/01/31 09:17:36;;;;;;;2.70;1.88;;;16.60;41.60;;;;;;5011952;28;20279;-56
2023/01/31 09:20:05;;;;;;;2.88;2.00;;;16.60;41.50;;;;;;5013276;28;20216;-56
2023/01/31 09:22:33;;;;;;;4.03;2.22;;;16.60;41.50;;;;;;5011686;28;20200;-56
2023/01/31 09:25:00;;;;;;;3.60;2.15;;;16.70;41.50;;;;;;5012956;28;20282;-56
2023/01/31 09:27:27;;;;;;;3.05;1.95;;;16.70;41.40;;;;;;5012995;28;20251;-56
2023/01/31 09:29:54;;;;;;;4.53;2.25;;;16.80;41.30;;;;;;5012957;28;20192;-57
2023/01/31 09:32:21;;;;;;;3.58;2.17;;;16.80;41.20;;;;;;5012918;28;20219;-56
2023/01/31 09:34:50;;;;;;;3.60;2.10;;;16.90;41.20;;;;;;5011480;28;20663;-57
2023/01/31 09:37:17;;;;;;;2.38;1.90;;;16.90;41.20;;;;;;5012828;28;20216;-56
2023/01/31 09:39:44;;;;;;;3.78;2.05;;;16.90;41.10;;;;;;5013000;28;20275;-56
2023/01/31 09:42:17;;;;;;;2.83;2.13;;;17.00;41.20;;;;;;5012838;28;20678;-56
2023/01/31 09:44:45;;;;;;;3.55;2.10;;;17.00;41.20;;;;;;5011802;28;20185;-56
2023/01/31 09:47:16;;;;;;;2.88;2.08;;;17.00;40.70;;;;;;5012935;28;20224;-57
2023/01/31 09:49:47;;;;;;;3.20;2.05;;;17.10;41.60;;;;;;5014131;28;20255;-56
2023/01/31 09:52:16;;;;;;;4.13;2.22;;;17.10;40.80;;;;;;5016896;28;20180;-56
2023/01/31 09:54:43;;;;;;;2.47;1.77;;;17.20;40.80;;;;;;5015413;28;20247;-56
2023/01/31 09:57:17;;;;;;;3.13;1.80;;;17.20;40.70;;;;;;5016592;28;20222;-56
2023/01/31 09:59:48;;;;;;;3.58;1.90;;;17.30;40.60;;;;;;5015281;28;20640;-56
2023/01/31 10:02:34;;;;;;;3.67;1.85;;;17.30;40.60;;;;;;5015603;28;20621;-56
2023/01/31 10:05:06;;;;;;;2.78;1.92;;;17.30;40.60;;;;;;5015044;28;20200;-56
2023/01/31 10:07:37;;;;;;;3.38;1.90;;;17.30;40.50;;;;;;5015136;28;20227;-56
2023/01/31 10:10:08;;;;;;;3.55;1.95;;;17.30;40.50;;;;;;5015259;28;20197;-56
2023/01/31 10:12:39;;;;;;;3.30;1.90;;;17.30;40.40;;;;;;5016352;28;20667;-56
2023/01/31 10:15:12;;;;;;;3.38;1.92;;;17.30;40.40;;;;;;5015162;28;20220;-56
2023/01/31 10:17:40;;;;;;;3.78;1.90;;;17.30;40.40;;;;;;5016393;28;20217;-56
2023/01/31 10:20:08;;;;;;;3.05;1.90;;;17.30;40.40;;;;;;5016448;28;20196;-56
2023/01/31 10:22:39;;;;;;;2.53;1.90;;;17.30;40.40;;;;;;5015090;28;20207;-56
2023/01/31 10:25:13;;;;;;;2.65;1.90;;;17.30;40.40;;;;;;5016414;28;20220;-56
2023/01/31 10:27:42;;;;;;;2.58;1.80;;;17.30;40.40;;;;;;5016531;28;20220;-56
2023/01/31 10:30:15;;;;;;;2.35;1.70;;;17.30;41.00;;;;;;5016653;28;20220;-56
2023/01/31 10:32:44;;;;;;;2.55;1.80;;;17.30;40.30;;;;;;5017631;28;20188;-57
2023/01/31 10:35:13;;;;;;;2.05;1.73;;;17.30;40.30;;;;;;5016836;28;20230;-57
2023/01/31 10:37:43;;;;;;;2.88;1.83;;;17.30;40.30;;;;;;5015034;28;20227;-56
2023/01/31 10:40:14;;;;;;;2.70;1.70;;;17.30;40.20;;;;;;5014935;28;20205;-56
2023/01/31 10:42:41;;;;;;;2.78;1.92;;;17.30;40.30;;;;;;5016331;28;20342;-56
2023/01/31 10:45:12;;;;;;;3.53;1.90;;;17.40;40.30;;;;;;5014771;28;20193;-56
2023/01/31 10:47:45;;;;;;;2.38;1.77;;;17.40;40.40;;;;;;5014699;28;20213;-56
2023/01/31 10:50:14;;;;;;;2.78;1.65;;;17.40;40.30;;;;;;5016262;28;20272;-56
2023/01/31 10:52:50;;;;;;;2.88;2.10;;;17.40;40.40;;;;;;5014436;28;20559;-56
2023/01/31 10:55:30;;;;;;;2.08;1.88;;;17.40;40.00;;;;;;5014959;28;20224;-56
2023/01/31 10:57:57;;;;;;;4.63;2.17;;;17.40;40.10;;;;;;5015623;28;20728;-56
2023/01/31 11:00:26;;;;;;;2.85;2.00;;;17.50;40.00;;;;;;5013363;28;20655;-56
2023/01/31 11:02:53;;;;;;;2.72;1.90;;;17.50;39.90;;;;;;5014281;28;20200;-56
2023/01/31 11:05:21;;;;;;;3.33;1.77;;;17.50;39.60;;;;;;5014248;28;20205;-56
2023/01/31 11:07:50;;;;;;;2.90;1.80;;;17.60;39.90;;;;;;5014205;28;20217;-56
2023/01/31 11:10:24;;;;;;;3.42;1.77;;;17.50;39.90;;;;;;5015595;28;20189;-56
2023/01/31 11:12:55;;;;;;;2.80;1.80;;;17.50;39.90;;;;;;5015625;28;20199;-56
2023/01/31 11:15:24;;;;;;;3.17;1.92;;;17.50;39.90;;;;;;5014349;28;20197;-56
2023/01/31 11:17:51;;;;;;;1.77;1.60;;;17.50;39.90;;;;;;5015699;28;20210;-57
2023/01/31 11:20:24;;;;;;;2.95;1.92;;;17.50;40.00;;;;;;5015463;28;20189;-56
2023/01/31 11:22:54;;;;;;;2.00;1.80;;;17.50;40.00;;;;;;5015186;28;20267;-56
2023/01/31 11:25:22;;;;;;;3.33;1.70;;;17.50;40.00;;;;;;5014264;28;20559;-56
2023/01/31 11:27:49;;;;;;;2.75;1.83;;;17.50;40.00;;;;;;5013902;28;20606;-56
2023/01/31 11:30:22;;;;;;;3.65;1.70;;;17.50;40.10;;;;;;5014210;28;20556;-56
2023/01/31 11:32:49;;;;;;;2.60;1.90;;;17.50;40.10;;;;;;5014165;28;20197;-56
2023/01/31 11:35:24;;;;;;;3.00;1.65;;;17.50;40.10;;;;;;5015737;28;20271;-56
2023/01/31 11:37:54;;;;;;;4.55;1.60;;;17.50;40.00;;;;;;5013838;28;20215;-57
2023/01/31 11:40:22;;;;;;;2.85;1.65;;;17.50;40.00;;;;;;5013643;28;20635;-56
2023/01/31 11:42:52;;;;;;;2.35;1.60;;;17.50;40.00;;;;;;5015108;28;20280;-56
2023/01/31 11:45:21;;;;;;;2.58;1.58;;;17.50;39.90;;;;;;5014327;28;20235;-56
2023/01/31 11:47:50;;;;;;;2.25;1.50;;;17.50;40.00;;;;;;5014287;28;20628;-56
2023/01/31 11:50:21;;;;;;;2.50;1.65;;;17.60;40.00;;;;;;5015006;28;20198;-56
2023/01/31 11:52:55;;;;;;;3.67;1.77;;;17.50;39.90;;;;;;5014690;28;20200;-56
2023/01/31 11:55:22;;;;;;;2.40;1.55;;;17.60;39.90;;;;;;5014988;28;20193;-56
2023/01/31 11:57:53;;;;;;;2.78;1.67;;;17.60;39.90;;;;;;5014838;28;20216;-56
2023/01/31 12:00:22;;;;;;;2.47;1.73;;;17.60;39.90;;;;;;5013640;28;20201;-56
2023/01/31 12:02:51;;;;;;;2.45;1.50;;;17.60;39.80;;;;;;5015601;28;20220;-56
2023/01/31 12:05:19;;;;;;;2.60;1.50;;;17.60;39.90;;;;;;5014600;28;20590;-56
2023/01/31 12:07:48;;;;;;;2.35;1.50;;;17.60;39.90;;;;;;5013245;28;20228;-56
2023/01/31 12:10:35;;;;;;;2.78;1.63;;;17.60;39.90;;;;;;5014551;28;20196;-56
2023/01/31 12:13:08;;;;;;;2.30;1.50;;;17.60;39.90;;;;;;5013068;28;20189;-56
2023/01/31 12:15:35;;;;;;;2.80;1.60;;;17.60;39.80;;;;;;5014281;28;20177;-56
2023/01/31 12:18:03;;;;;;;2.03;1.58;;;17.60;39.70;;;;;;5014148;28;20275;-56
2023/01/31 12:20:36;;;;;;;2.80;1.70;;;17.60;39.70;;;;;;5014390;28;20200;-56
2023/01/31 12:23:10;;;;;;;2.60;1.77;;;17.60;39.80;;;;;;5014181;28;20179;-56
2023/01/31 12:25:47;;;;;;;2.40;1.65;;;17.60;40.40;;;;;;5014163;28;20627;-56
2023/01/31 12:28:21;;;;;;;2.40;1.63;;;17.60;39.70;;;;;;5012808;28;20216;-56
2023/01/31 12:30:56;;;;;;;3.38;1.70;;;17.60;39.70;;;;;;5012797;28;20283;-56
2023/01/31 12:33:35;;;;;;;2.28;1.58;;;17.60;39.80;;;;;;5012679;28;20291;-56
2023/01/31 12:36:12;;;;;;;2.95;1.67;;;17.60;39.70;;;;;;5014234;28;20296;-56
2023/01/31 12:38:52;;;;;;;2.38;1.70;;;17.60;39.80;;;;;;5012591;28;20213;-56
2023/01/31 12:41:25;;;;;;;1.83;1.35;;;17.70;39.90;;;;;;5012591;28;20195;-56
2023/01/31 12:44:05;;;;;;;1.58;1.30;;;17.60;39.80;;;;;;5014256;28;20177;-57
2023/01/31 12:46:35;;;;;;;2.60;1.65;;;17.60;39.70;;;;;;5014807;28;20209;-56
2023/01/31 12:49:23;;;;;;;1.70;1.33;;;17.70;39.50;;;;;;5013025;28;20283;-56
2023/01/31 12:51:58;;;;;;;1.92;1.50;;;17.80;39.40;;;;;;5140140;22;20240;-86
2023/01/31 12:54:34;;;;;;;2.33;1.40;;;17.80;39.50;;;;;;5025218;28;20194;-86
2023/01/31 12:57:13;;;;;;;2.55;1.70;;;17.80;39.30;;;;;;5035559;28;20303;-86
2023/01/31 12:59:47;;;;;;;2.80;1.52;;;17.90;39.40;;;;;;5025728;28;20196;-86
2023/01/31 13:02:24;;;;;;;2.50;1.52;;;17.80;39.40;;;;;;5015398;28;20575;-86
2023/01/31 13:04:53;;;;;;;2.13;1.60;;;17.90;39.50;;;;;;5014794;28;20200;-86
2023/01/31 13:07:23;;;;;;;1.40;1.30;;;17.80;39.30;;;;;;5015003;28;20224;-86